Etusivu
METAR-TAF:

METAR-TAF

Lentoasemat :

Tampere, Suomi

Tampere-Pirkkalan lentoasema

Leveyspiiri: 61-25N, Pituuspiiri: 023-35E, korkeus merenpinnasta: 112 m

Tämänhetkinen sää

Tämä raportti tehtiin 25 minuuttia sitten, kello 06.20 UTC
Tuuli 9 kn pohjoisen/luoteesta
Lämpötila 10°C
Kosteus 82%
Ilmanpaine 1009 hPa
Näkyvyys 10 km tai enemmän
Muutamia pilviä 1600 ft:n korkeudessa
Hajonneita pilviä 3000 ft:n korkeudessa

METAR: EFTP 240620Z 33009KT 9999 FEW016 BKN030 10/07 Q1009

Aika: 09:45 (06:45 UTC)

Sääennuste

Tämä raportti tehtiin 1 tunti ja 14 minuuttia sitten, kello 05.31 UTC
Ennuste voimassa 24. päivästä klo 06 UTC - 25. päivään klo 06 UTC
Tuuli 9 kn pohjoisen/luoteesta
Näkyvyys 10 km tai enemmän
Hajonneita pilviä 2000 ft:n korkeudessa

TAF: EFTP 240531Z 2406/2506 34009KT 9999 BKN020

Säähavainnot ja -ennusteet yli 4000 lentoasemalta (METAR- ja TAF-raportit).

Käytössä olevat sääasemat on merkitty karttaan keltaisilla ja punaisilla pisteillä.

Aseta hiiri pisteen päälle nähdäksesi sääaseman nimen.

Klikkaa sitten nähdäksesi säähavainnot ja -ennusteet.

Kartan vaihtaminen: klikkaa mustalla rastilla varustettuja vihreitä pisteitä, niin voit zoomata sisään; viivalla varustettua vihreää pistettä, niin voit zoomata ulos tai vihreitä nuolia, niin pääset viereisille kartoille.


METAR-TAF: